Time;durP1;ratioP1;P1;durP2;ratioP2;P2;SDS_P1;SDS_P2;PMS_P1;PMS_P2;Temp;Humidity;BMP_temperature;BMP_pressure;BME280_temperature;BME280_humidity;BME280_pressure;Samples;Min_cycle;Max_cycle;Signal;HPM_P1;HPM_P2
2023/08/21 00:00:45;;;;;;;15.23;6.20;;;;;;;;;;10454810;28;20029;-62
2023/08/21 00:05:46;;;;;;;8.77;5.13;;;;;;;;;;10454579;28;20107;-66
2023/08/21 00:10:46;;;;;;;11.97;5.67;;;;;;;;;;10454421;28;20021;-66
2023/08/21 00:15:46;;;;;;;10.83;5.20;;;;;;;;;;10454140;28;20028;-63
2023/08/21 00:20:47;;;;;;;13.47;5.47;;;;;;;;;;10454567;28;20025;-64
2023/08/21 00:25:47;;;;;;;13.27;6.37;;;;;;;;;;10453764;28;20504;-64
2023/08/21 00:30:48;;;;;;;8.52;5.60;;;;;;;;;;10453675;28;20036;-63
2023/08/21 00:35:48;;;;;;;8.80;5.37;;;;;;;;;;10453053;28;20275;-62
2023/08/21 00:40:49;;;;;;;8.30;4.67;;;;;;;;;;10453191;28;20025;-62
2023/08/21 00:45:49;;;;;;;8.60;5.50;;;;;;;;;;10452954;28;20119;-62
2023/08/21 00:50:50;;;;;;;9.77;5.35;;;;;;;;;;10452641;28;20041;-62
2023/08/21 00:55:51;;;;;;;14.63;5.30;;;;;;;;;;10451536;28;20086;-65
2023/08/21 01:00:52;;;;;;;11.70;4.93;;;;;;;;;;10452093;28;20025;-62
2023/08/21 01:05:52;;;;;;;8.38;5.13;;;;;;;;;;10451872;28;20469;-62
2023/08/21 01:10:57;;;;;;;10.68;5.20;;;;;;;;;;10451623;28;20036;-62
2023/08/21 01:15:58;;;;;;;8.05;4.97;;;;;;;;;;10450279;28;20509;-62
2023/08/21 01:20:59;;;;;;;7.60;5.10;;;;;;;;;;10451673;28;20113;-62
2023/08/21 01:25:59;;;;;;;7.38;4.72;;;;;;;;;;10451172;28;20078;-62
2023/08/21 01:31:15;;;;;;;7.93;5.00;;;;;;;;;;10450918;28;20365;-62
2023/08/21 01:36:16;;;;;;;8.63;5.45;;;;;;;;;;10449395;28;20029;-64
2023/08/21 01:41:16;;;;;;;6.00;4.43;;;;;;;;;;10449031;28;20025;-63
2023/08/21 01:46:17;;;;;;;9.07;5.53;;;;;;;;;;10449483;28;20059;-64
2023/08/21 01:51:17;;;;;;;8.63;4.55;;;;;;;;;;10449750;28;20090;-63
2023/08/21 01:56:18;;;;;;;7.13;4.87;;;;;;;;;;10450184;28;20028;-63
2023/08/21 02:01:18;;;;;;;6.13;4.23;;;;;;;;;;10450256;28;20025;-64
2023/08/21 02:06:19;;;;;;;8.55;5.32;;;;;;;;;;10449491;28;20025;-62
2023/08/21 02:11:19;;;;;;;6.07;4.30;;;;;;;;;;10449623;28;20141;-62
2023/08/21 02:16:21;;;;;;;7.30;4.37;;;;;;;;;;10449550;28;20036;-63
2023/08/21 02:21:22;;;;;;;7.00;4.60;;;;;;;;;;10450243;28;20155;-63
2023/08/21 02:26:22;;;;;;;10.17;4.60;;;;;;;;;;10449462;28;20438;-64
2023/08/21 02:31:22;;;;;;;9.98;4.38;;;;;;;;;;10449108;28;20152;-62
2023/08/21 02:36:23;;;;;;;6.77;4.27;;;;;;;;;;10448860;28;20082;-62
2023/08/21 02:41:23;;;;;;;8.30;4.37;;;;;;;;;;10449096;28;20125;-62
2023/08/21 02:46:23;;;;;;;11.17;4.90;;;;;;;;;;10449300;28;20106;-63
2023/08/21 02:51:24;;;;;;;7.43;4.20;;;;;;;;;;10449004;28;20168;-62
2023/08/21 02:56:24;;;;;;;7.00;4.47;;;;;;;;;;10448803;28;20025;-64
2023/08/21 03:01:24;;;;;;;6.47;4.43;;;;;;;;;;10455920;28;20049;-63
2023/08/21 03:06:25;;;;;;;5.17;4.17;;;;;;;;;;10456715;28;20415;-63
2023/08/21 03:11:25;;;;;;;4.73;4.20;;;;;;;;;;10456496;28;20539;-62
2023/08/21 03:16:25;;;;;;;5.23;3.97;;;;;;;;;;10456411;28;20025;-63
2023/08/21 03:21:27;;;;;;;8.30;3.90;;;;;;;;;;10456225;28;20464;-61
2023/08/21 03:26:27;;;;;;;6.35;4.32;;;;;;;;;;10454536;28;20028;-62
2023/08/21 03:31:27;;;;;;;9.50;4.33;;;;;;;;;;10455767;28;20480;-61
2023/08/21 03:36:31;;;;;;;4.37;3.87;;;;;;;;;;10455491;28;20029;-62
2023/08/21 03:41:31;;;;;;;4.20;3.80;;;;;;;;;;10455806;28;20021;-61
2023/08/21 03:46:32;;;;;;;6.00;3.90;;;;;;;;;;10455162;28;20512;-63
2023/08/21 03:51:32;;;;;;;5.63;4.37;;;;;;;;;;10454899;28;20377;-62
2023/08/21 03:56:32;;;;;;;5.17;4.50;;;;;;;;;;10455082;28;20021;-62
2023/08/21 04:01:33;;;;;;;5.93;3.93;;;;;;;;;;10454598;28;20025;-64
2023/08/21 04:06:33;;;;;;;5.17;3.87;;;;;;;;;;10454157;28;20040;-64
2023/08/21 04:11:34;;;;;;;7.33;4.03;;;;;;;;;;10453744;28;20115;-63
2023/08/21 04:16:34;;;;;;;9.83;4.57;;;;;;;;;;10453795;28;20526;-63
2023/08/21 04:21:34;;;;;;;4.07;3.70;;;;;;;;;;10454102;28;20438;-62
2023/08/21 04:26:35;;;;;;;4.27;3.87;;;;;;;;;;10453511;28;20377;-63
2023/08/21 04:31:35;;;;;;;5.13;3.77;;;;;;;;;;10453317;28;20024;-61
2023/08/21 04:36:35;;;;;;;4.13;3.60;;;;;;;;;;10453273;28;20025;-62
2023/08/21 04:41:36;;;;;;;6.50;3.93;;;;;;;;;;10452909;28;20542;-62
2023/08/21 04:46:36;;;;;;;4.13;3.73;;;;;;;;;;10452726;28;20492;-62
2023/08/21 04:51:36;;;;;;;4.83;3.80;;;;;;;;;;10452517;28;20035;-63
2023/08/21 04:56:37;;;;;;;4.73;3.93;;;;;;;;;;10451928;28;20537;-62
2023/08/21 05:01:37;;;;;;;8.67;4.27;;;;;;;;;;10451740;28;20033;-63
2023/08/21 05:06:37;;;;;;;7.57;3.47;;;;;;;;;;10452021;28;20033;-60
2023/08/21 05:11:38;;;;;;;4.90;3.83;;;;;;;;;;10451531;28;20032;-62
2023/08/21 05:16:38;;;;;;;5.72;3.70;;;;;;;;;;10451481;28;20170;-62
2023/08/21 05:21:39;;;;;;;4.97;3.90;;;;;;;;;;10452198;28;20041;-63
2023/08/21 05:26:39;;;;;;;10.43;3.90;;;;;;;;;;10451612;28;20086;-63
2023/08/21 05:31:40;;;;;;;9.43;3.40;;;;;;;;;;10450737;28;20797;-64
2023/08/21 05:36:40;;;;;;;6.50;4.57;;;;;;;;;;10450792;28;20025;-65
2023/08/21 05:41:40;;;;;;;4.80;3.93;;;;;;;;;;10449885;28;20444;-65
2023/08/21 05:46:41;;;;;;;5.87;4.60;;;;;;;;;;10449674;28;20618;-66
2023/08/21 05:51:42;;;;;;;4.45;4.00;;;;;;;;;;10449437;28;20052;-65
2023/08/21 05:56:43;;;;;;;5.93;3.87;;;;;;;;;;10450251;28;20043;-65
2023/08/21 06:01:44;;;;;;;8.90;4.50;;;;;;;;;;10449303;28;20032;-64
2023/08/21 06:06:44;;;;;;;5.65;4.43;;;;;;;;;;10449152;28;20457;-65
2023/08/21 06:11:44;;;;;;;8.30;4.47;;;;;;;;;;10448929;28;20054;-65
2023/08/21 06:16:45;;;;;;;4.63;4.10;;;;;;;;;;10448299;28;20555;-65
2023/08/21 06:21:45;;;;;;;10.10;4.77;;;;;;;;;;10450044;28;20114;-65
2023/08/21 06:26:45;;;;;;;5.53;4.57;;;;;;;;;;10449452;28;20446;-64
2023/08/21 06:31:46;;;;;;;6.80;4.70;;;;;;;;;;10449715;28;20033;-65
2023/08/21 06:36:46;;;;;;;5.28;3.92;;;;;;;;;;10457621;28;20044;-64
2023/08/21 06:41:47;;;;;;;4.88;4.38;;;;;;;;;;10457844;28;20029;-64
2023/08/21 06:46:47;;;;;;;6.57;4.23;;;;;;;;;;10458171;28;20064;-64
2023/08/21 06:51:48;;;;;;;6.07;4.23;;;;;;;;;;10457409;28;20187;-64
2023/08/21 06:56:48;;;;;;;5.23;4.23;;;;;;;;;;10457246;28;20029;-64
2023/08/21 07:01:48;;;;;;;10.20;4.30;;;;;;;;;;10456980;28;20029;-64
2023/08/21 07:06:49;;;;;;;4.75;3.70;;;;;;;;;;10456688;28;20025;-64
2023/08/21 07:11:49;;;;;;;5.17;3.87;;;;;;;;;;10456714;28;20365;-64
2023/08/21 07:16:49;;;;;;;4.00;3.60;;;;;;;;;;10456476;28;20025;-64
2023/08/21 07:21:50;;;;;;;6.83;4.00;;;;;;;;;;10456430;28;20029;-64
2023/08/21 07:26:50;;;;;;;4.60;3.77;;;;;;;;;;10456122;28;20052;-64
2023/08/21 07:31:51;;;;;;;7.27;3.87;;;;;;;;;;10456478;28;20117;-64
2023/08/21 07:36:51;;;;;;;4.30;3.90;;;;;;;;;;10456243;28;20485;-64
2023/08/21 07:41:52;;;;;;;6.40;4.10;;;;;;;;;;10454284;28;20032;-64
2023/08/21 07:46:53;;;;;;;4.55;4.07;;;;;;;;;;10454813;28;20045;-64
2023/08/21 07:51:53;;;;;;;4.30;3.87;;;;;;;;;;10455325;28;20033;-64
2023/08/21 07:56:53;;;;;;;4.30;3.67;;;;;;;;;;10455040;28;20115;-64
2023/08/21 08:01:54;;;;;;;4.33;3.93;;;;;;;;;;10454793;28;20036;-65
2023/08/21 08:06:54;;;;;;;4.73;4.20;;;;;;;;;;10455472;28;20025;-64
2023/08/21 08:11:54;;;;;;;5.53;4.10;;;;;;;;;;10454301;28;20450;-64
2023/08/21 08:16:55;;;;;;;4.33;3.93;;;;;;;;;;10454140;28;20094;-64
2023/08/21 08:21:56;;;;;;;4.17;3.87;;;;;;;;;;10454715;28;20372;-64
2023/08/21 08:26:56;;;;;;;4.93;4.15;;;;;;;;;;10454246;28;20505;-64
2023/08/21 08:31:56;;;;;;;4.90;4.20;;;;;;;;;;10453599;28;20431;-64
2023/08/21 08:36:57;;;;;;;4.53;4.07;;;;;;;;;;10453416;28;20028;-64
2023/08/21 08:42:04;;;;;;;4.53;3.80;;;;;;;;;;10453254;28;20290;-64
2023/08/21 08:47:04;;;;;;;5.53;4.53;;;;;;;;;;10451543;28;20131;-64
2023/08/21 08:52:05;;;;;;;4.33;3.93;;;;;;;;;;10452818;28;20036;-64
2023/08/21 08:57:05;;;;;;;5.75;3.72;;;;;;;;;;10452632;28;20434;-64
2023/08/21 09:02:05;;;;;;;4.23;3.73;;;;;;;;;;10452432;28;20028;-64
2023/08/21 09:07:10;;;;;;;4.25;3.83;;;;;;;;;;10450970;28;20025;-64
2023/08/21 09:12:12;;;;;;;4.03;3.63;;;;;;;;;;10451905;28;20021;-64
2023/08/21 09:17:13;;;;;;;4.22;3.83;;;;;;;;;;10451724;28;20025;-64
2023/08/21 09:22:17;;;;;;;5.07;4.10;;;;;;;;;;10451607;28;20021;-64
2023/08/21 09:27:18;;;;;;;4.50;4.10;;;;;;;;;;10450076;28;20098;-64
2023/08/21 09:32:18;;;;;;;6.17;4.23;;;;;;;;;;10451094;28;20060;-64
2023/08/21 09:37:19;;;;;;;5.00;4.37;;;;;;;;;;10451086;28;20032;-64
2023/08/21 09:42:19;;;;;;;5.60;4.40;;;;;;;;;;10450803;28;20111;-64
2023/08/21 09:47:20;;;;;;;4.93;4.30;;;;;;;;;;10450896;28;20041;-64
2023/08/21 09:52:21;;;;;;;5.15;4.20;;;;;;;;;;10449223;28;20029;-64
2023/08/21 09:57:22;;;;;;;5.95;4.22;;;;;;;;;;10449118;28;20393;-64
2023/08/21 10:02:23;;;;;;;5.13;3.95;;;;;;;;;;10450782;28;20039;-64
2023/08/21 10:07:25;;;;;;;6.28;4.25;;;;;;;;;;10449332;28;20473;-64
2023/08/21 10:12:26;;;;;;;5.78;4.18;;;;;;;;;;10448765;28;20029;-64
2023/08/21 10:17:26;;;;;;;7.25;4.10;;;;;;;;;;10450340;28;20033;-64
2023/08/21 10:22:43;;;;;;;5.00;4.07;;;;;;;;;;10449806;28;20036;-64
2023/08/21 10:27:43;;;;;;;5.07;4.57;;;;;;;;;;10450494;28;20112;-64
2023/08/21 10:32:47;;;;;;;5.93;4.27;;;;;;;;;;10449510;28;20036;-64
2023/08/21 10:38:10;;;;;;;5.38;4.40;;;;;;;;;;10449924;28;20529;-64
2023/08/21 10:43:44;;;;;;;5.10;4.60;;;;;;;;;;10449771;28;20029;-64
2023/08/21 10:48:45;;;;;;;5.28;4.72;;;;;;;;;;10449023;28;20053;-64
2023/08/21 10:53:45;;;;;;;6.93;4.53;;;;;;;;;;10449231;28;20029;-64
2023/08/21 10:58:46;;;;;;;5.00;4.50;;;;;;;;;;10449640;28;20543;-64
2023/08/21 11:03:50;;;;;;;5.60;4.60;;;;;;;;;;10449457;28;20111;-64
2023/08/21 11:08:50;;;;;;;4.65;4.25;;;;;;;;;;10449331;28;20025;-64
2023/08/21 11:13:54;;;;;;;6.33;5.00;;;;;;;;;;10449148;28;20029;-64
2023/08/21 11:18:54;;;;;;;5.20;4.70;;;;;;;;;;10450504;28;20036;-64
2023/08/21 11:23:54;;;;;;;5.57;4.67;;;;;;;;;;10456140;28;20021;-64
2023/08/21 11:28:55;;;;;;;4.90;4.50;;;;;;;;;;10455907;28;20415;-64
2023/08/21 11:33:55;;;;;;;5.05;4.60;;;;;;;;;;10454595;28;20388;-64
2023/08/21 11:39:00;;;;;;;5.50;4.83;;;;;;;;;;10455817;28;20032;-64
2023/08/21 11:44:08;;;;;;;4.88;4.47;;;;;;;;;;10455176;28;20654;-64
2023/08/21 11:49:08;;;;;;;5.13;4.65;;;;;;;;;;10455131;28;20044;-64
2023/08/21 11:54:09;;;;;;;5.70;4.73;;;;;;;;;;10454989;28;20400;-64
2023/08/21 11:59:09;;;;;;;6.60;5.00;;;;;;;;;;10455276;28;20079;-64
2023/08/21 12:04:15;;;;;;;5.27;4.60;;;;;;;;;;10454912;28;20032;-64
2023/08/21 12:09:18;;;;;;;6.70;4.88;;;;;;;;;;10454709;28;20458;-64
2023/08/21 12:14:19;;;;;;;6.97;5.35;;;;;;;;;;10454534;28;20025;-65
2023/08/21 12:19:21;;;;;;;5.33;4.73;;;;;;;;;;10454052;28;20025;-64
2023/08/21 12:24:21;;;;;;;5.45;4.78;;;;;;;;;;10453924;28;20036;-64
2023/08/21 12:29:22;;;;;;;6.67;4.83;;;;;;;;;;10453636;28;20035;-64
2023/08/21 12:34:22;;;;;;;6.23;4.80;;;;;;;;;;10453257;28;20039;-64
2023/08/21 12:39:23;;;;;;;7.47;4.80;;;;;;;;;;10454385;28;20484;-64
2023/08/21 12:44:23;;;;;;;6.07;4.50;;;;;;;;;;10453420;28;20771;-64
2023/08/21 12:49:23;;;;;;;5.03;4.53;;;;;;;;;;10452830;28;20561;-64
2023/08/21 12:54:24;;;;;;;5.27;4.77;;;;;;;;;;10453027;28;20017;-64
2023/08/21 12:59:24;;;;;;;5.50;5.00;;;;;;;;;;10452366;28;20430;-64
2023/08/21 13:04:24;;;;;;;6.03;4.90;;;;;;;;;;10452615;28;20060;-64
2023/08/21 13:09:25;;;;;;;5.40;4.90;;;;;;;;;;10452493;28;20017;-64
2023/08/21 13:14:25;;;;;;;5.50;5.00;;;;;;;;;;10452237;28;20381;-64
2023/08/21 13:19:26;;;;;;;5.33;4.83;;;;;;;;;;10451729;28;20480;-64
2023/08/21 13:24:28;;;;;;;5.33;4.87;;;;;;;;;;10451438;28;20032;-64
2023/08/21 13:29:28;;;;;;;5.45;4.95;;;;;;;;;;10451203;28;20107;-64
2023/08/21 13:34:29;;;;;;;5.60;4.95;;;;;;;;;;10451470;28;20095;-64
2023/08/21 13:39:30;;;;;;;4.80;4.40;;;;;;;;;;10450970;28;20025;-64
2023/08/21 13:44:30;;;;;;;5.63;4.30;;;;;;;;;;10450136;28;20106;-65
2023/08/21 13:49:31;;;;;;;5.80;5.17;;;;;;;;;;10450407;28;20568;-64
2023/08/21 13:54:32;;;;;;;5.22;4.80;;;;;;;;;;10450262;28;20029;-64
2023/08/21 13:59:32;;;;;;;5.17;4.77;;;;;;;;;;10449553;28;20029;-64
2023/08/21 14:04:33;;;;;;;6.70;5.20;;;;;;;;;;10450629;28;20461;-65
2023/08/21 14:09:33;;;;;;;5.23;4.77;;;;;;;;;;10450002;28;20469;-64
2023/08/21 14:14:35;;;;;;;5.73;5.13;;;;;;;;;;10450348;28;20036;-64
2023/08/21 14:19:35;;;;;;;5.03;4.63;;;;;;;;;;10449752;28;20036;-65
2023/08/21 14:24:35;;;;;;;6.00;4.67;;;;;;;;;;10450071;28;20357;-64
2023/08/21 14:29:36;;;;;;;6.43;4.43;;;;;;;;;;10449382;28;20029;-64
2023/08/21 14:34:36;;;;;;;5.53;5.03;;;;;;;;;;10449511;28;20029;-64
2023/08/21 14:39:36;;;;;;;5.87;4.70;;;;;;;;;;10449908;28;20108;-65
2023/08/21 14:44:37;;;;;;;5.90;5.13;;;;;;;;;;10449600;28;20032;-64
2023/08/21 14:49:38;;;;;;;4.60;4.18;;;;;;;;;;10448957;28;20052;-64
2023/08/21 14:54:38;;;;;;;6.00;5.07;;;;;;;;;;10452114;28;20021;-64
2023/08/21 14:59:38;;;;;;;6.10;4.60;;;;;;;;;;10457649;28;20430;-64
2023/08/21 15:04:39;;;;;;;4.93;4.50;;;;;;;;;;10457358;28;20415;-65
2023/08/21 15:09:39;;;;;;;4.77;4.37;;;;;;;;;;10456752;28;20472;-64
2023/08/21 15:14:39;;;;;;;4.97;4.50;;;;;;;;;;10456958;28;20082;-64
2023/08/21 15:19:40;;;;;;;5.77;4.70;;;;;;;;;;10457490;28;20037;-65
2023/08/21 15:24:40;;;;;;;5.17;4.70;;;;;;;;;;10456159;28;20060;-64
2023/08/21 15:29:40;;;;;;;5.50;5.00;;;;;;;;;;10455979;28;20055;-64
2023/08/21 15:34:41;;;;;;;4.90;4.40;;;;;;;;;;10455872;28;20025;-64
2023/08/21 15:39:41;;;;;;;4.90;4.40;;;;;;;;;;10455643;28;20096;-64
2023/08/21 15:44:41;;;;;;;5.87;4.60;;;;;;;;;;10455891;28;20507;-64
2023/08/21 15:49:42;;;;;;;5.00;4.50;;;;;;;;;;10454998;28;20083;-64
2023/08/21 15:54:42;;;;;;;5.32;4.82;;;;;;;;;;10454895;28;20025;-64
2023/08/21 15:59:42;;;;;;;6.33;4.93;;;;;;;;;;10454868;28;20028;-64
2023/08/21 16:04:43;;;;;;;5.63;4.67;;;;;;;;;;10453020;28;20113;-64
2023/08/21 16:09:44;;;;;;;5.68;5.07;;;;;;;;;;10453974;28;20028;-64
2023/08/21 16:14:44;;;;;;;4.97;4.47;;;;;;;;;;10454139;28;20465;-64
2023/08/21 16:19:44;;;;;;;5.13;4.63;;;;;;;;;;10453999;28;20040;-64
2023/08/21 16:24:45;;;;;;;4.80;4.33;;;;;;;;;;10453736;28;20028;-64
2023/08/21 16:29:45;;;;;;;5.50;5.00;;;;;;;;;;10453573;28;20032;-64
2023/08/21 16:34:45;;;;;;;5.20;4.70;;;;;;;;;;10453193;28;20025;-64
2023/08/21 16:39:46;;;;;;;5.27;4.77;;;;;;;;;;10452745;28;20025;-63
2023/08/21 16:44:46;;;;;;;5.17;4.70;;;;;;;;;;10452128;28;20020;-63
2023/08/21 16:49:46;;;;;;;5.37;4.87;;;;;;;;;;10451714;28;20040;-63
2023/08/21 16:54:47;;;;;;;5.30;4.80;;;;;;;;;;10452441;28;20041;-63
2023/08/21 16:59:47;;;;;;;5.40;4.90;;;;;;;;;;10450953;28;20025;-63
2023/08/21 17:04:48;;;;;;;5.27;4.57;;;;;;;;;;10451978;28;20116;-63
2023/08/21 17:09:49;;;;;;;5.10;4.65;;;;;;;;;;10451862;28;20033;-63
2023/08/21 17:14:49;;;;;;;4.95;4.47;;;;;;;;;;10451713;28;20033;-63
2023/08/21 17:19:49;;;;;;;4.60;4.20;;;;;;;;;;10451898;28;20039;-63
2023/08/21 17:24:51;;;;;;;5.30;4.63;;;;;;;;;;10451868;28;20028;-63
2023/08/21 17:29:51;;;;;;;6.47;4.55;;;;;;;;;;10450954;28;20051;-63
2023/08/21 17:34:52;;;;;;;5.93;4.88;;;;;;;;;;10450728;28;20036;-63
2023/08/21 17:39:52;;;;;;;4.80;4.23;;;;;;;;;;10450259;28;20033;-63
2023/08/21 17:44:54;;;;;;;6.30;4.67;;;;;;;;;;10449683;28;20029;-63
2023/08/21 17:49:54;;;;;;;5.25;4.75;;;;;;;;;;10448163;28;20074;-63
2023/08/21 17:54:55;;;;;;;4.80;4.40;;;;;;;;;;10449043;28;20028;-63
2023/08/21 17:59:55;;;;;;;4.80;4.28;;;;;;;;;;10449124;28;20025;-63
2023/08/21 18:04:56;;;;;;;7.20;4.43;;;;;;;;;;10449570;28;20078;-63
2023/08/21 18:09:56;;;;;;;5.43;4.93;;;;;;;;;;10449141;28;20452;-63
2023/08/21 18:14:57;;;;;;;5.23;4.73;;;;;;;;;;10449728;28;20029;-63
2023/08/21 18:19:57;;;;;;;4.83;4.33;;;;;;;;;;10449092;28;20468;-63
2023/08/21 18:24:57;;;;;;;4.73;4.33;;;;;;;;;;10449421;28;20834;-63
2023/08/21 18:29:58;;;;;;;6.03;4.40;;;;;;;;;;10452517;28;20059;-63
2023/08/21 18:35:00;;;;;;;10.02;4.32;;;;;;;;;;10458585;28;20362;-63
2023/08/21 18:40:01;;;;;;;8.13;4.55;;;;;;;;;;10458082;28;20078;-63
2023/08/21 18:45:01;;;;;;;4.97;3.90;;;;;;;;;;10457796;28;20070;-63
2023/08/21 18:50:02;;;;;;;4.90;4.50;;;;;;;;;;10457213;28;20052;-63
2023/08/21 18:55:03;;;;;;;5.95;4.60;;;;;;;;;;10456956;28;20032;-63
2023/08/21 19:00:12;;;;;;;6.32;4.68;;;;;;;;;;10457825;28;20025;-63
2023/08/21 19:05:12;;;;;;;7.25;4.40;;;;;;;;;;10456798;28;20289;-63
2023/08/21 19:10:12;;;;;;;5.37;4.20;;;;;;;;;;10456832;28;20595;-63
2023/08/21 19:15:14;;;;;;;5.10;4.37;;;;;;;;;;10456482;28;20119;-63
2023/08/21 19:20:15;;;;;;;4.60;4.20;;;;;;;;;;10456977;28;20032;-63
2023/08/21 19:25:15;;;;;;;5.20;4.55;;;;;;;;;;10456717;28;20090;-63
2023/08/21 19:30:16;;;;;;;5.60;4.70;;;;;;;;;;10456417;28;20120;-63
2023/08/21 19:35:16;;;;;;;7.38;5.63;;;;;;;;;;10455102;28;20105;-63
2023/08/21 19:40:17;;;;;;;6.97;5.53;;;;;;;;;;10455397;28;20036;-63
2023/08/21 19:45:19;;;;;;;7.33;5.53;;;;;;;;;;10454677;28;20029;-63
2023/08/21 19:50:19;;;;;;;18.27;5.82;;;;;;;;;;10454694;28;20048;-63
2023/08/21 19:55:21;;;;;;;12.30;6.20;;;;;;;;;;10454886;28;20037;-63
2023/08/21 20:00:22;;;;;;;13.88;5.78;;;;;;;;;;10455660;28;20072;-63
2023/08/21 20:05:22;;;;;;;17.45;6.18;;;;;;;;;;10454866;28;20083;-63
2023/08/21 20:10:23;;;;;;;13.23;5.60;;;;;;;;;;10454359;28;20480;-63
2023/08/21 20:15:23;;;;;;;15.10;6.03;;;;;;;;;;10453659;28;20275;-63
2023/08/21 20:20:25;;;;;;;17.80;5.90;;;;;;;;;;10453893;28;20033;-64
2023/08/21 20:25:26;;;;;;;11.38;5.53;;;;;;;;;;10454055;28;20029;-63
2023/08/21 20:30:26;;;;;;;16.73;5.63;;;;;;;;;;10453280;28;20025;-63
2023/08/21 20:35:27;;;;;;;22.87;7.33;;;;;;;;;;10452292;28;20025;-62
2023/08/21 20:40:27;;;;;;;23.87;8.97;;;;;;;;;;10452777;28;20480;-64
2023/08/21 20:45:27;;;;;;;36.97;9.10;;;;;;;;;;10450556;28;20025;-61
2023/08/21 20:50:29;;;;;;;38.60;9.77;;;;;;;;;;10452645;28;20252;-60
2023/08/21 20:55:29;;;;;;;22.65;7.57;;;;;;;;;;10451498;28;20957;-62
2023/08/21 21:00:30;;;;;;;27.05;8.05;;;;;;;;;;10450900;28;20041;-61
2023/08/21 21:05:30;;;;;;;24.53;7.33;;;;;;;;;;10452160;28;20028;-60
2023/08/21 21:10:31;;;;;;;23.67;7.30;;;;;;;;;;10451591;28;20450;-62
2023/08/21 21:15:31;;;;;;;18.27;6.63;;;;;;;;;;10450909;28;20047;-60
2023/08/21 21:20:31;;;;;;;23.07;6.40;;;;;;;;;;10451183;28;20033;-59
2023/08/21 21:25:32;;;;;;;17.67;6.43;;;;;;;;;;10450992;28;20102;-60
2023/08/21 21:30:32;;;;;;;23.13;6.70;;;;;;;;;;10451434;28;20029;-59
2023/08/21 21:35:32;;;;;;;22.90;6.10;;;;;;;;;;10451505;28;20388;-61
2023/08/21 21:40:33;;;;;;;20.13;5.70;;;;;;;;;;10450508;28;20465;-62
2023/08/21 21:45:34;;;;;;;16.43;5.63;;;;;;;;;;10450001;28;20594;-62
2023/08/21 21:50:34;;;;;;;23.92;5.88;;;;;;;;;;10450009;28;20053;-62
2023/08/21 21:55:35;;;;;;;38.83;6.70;;;;;;;;;;10449934;28;20017;-62
2023/08/21 22:00:35;;;;;;;17.87;6.20;;;;;;;;;;10449900;28;20472;-62
2023/08/21 22:05:35;;;;;;;19.27;5.10;;;;;;;;;;10447889;28;20029;-60
2023/08/21 22:10:36;;;;;;;18.30;5.90;;;;;;;;;;10449533;28;20264;-62
2023/08/21 22:15:37;;;;;;;19.92;5.80;;;;;;;;;;10449640;28;20162;-61
2023/08/21 22:20:38;;;;;;;18.52;5.50;;;;;;;;;;10449706;28;20033;-61
2023/08/21 22:25:38;;;;;;;19.03;5.37;;;;;;;;;;10449533;28;20112;-62
2023/08/21 22:30:39;;;;;;;18.25;5.20;;;;;;;;;;10449566;28;20479;-63
2023/08/21 22:35:39;;;;;;;12.77;5.33;;;;;;;;;;10448931;28;20033;-61
2023/08/21 22:40:39;;;;;;;16.63;5.83;;;;;;;;;;10449402;28;20422;-62
2023/08/21 22:45:40;;;;;;;9.60;4.47;;;;;;;;;;10449099;28;20048;-61
2023/08/21 22:50:40;;;;;;;13.32;4.93;;;;;;;;;;10448819;28;20045;-62
2023/08/21 22:55:42;;;;;;;7.60;4.40;;;;;;;;;;10448473;28;20025;-60
2023/08/21 23:00:42;;;;;;;12.68;4.53;;;;;;;;;;10447881;28;20458;-63
2023/08/21 23:05:51;;;;;;;17.33;4.70;;;;;;;;;;10448228;28;20025;-63
2023/08/21 23:10:52;;;;;;;9.10;4.35;;;;;;;;;;10449099;28;20450;-63
2023/08/21 23:15:53;;;;;;;10.48;4.97;;;;;;;;;;10451736;28;20029;-62
2023/08/21 23:20:57;;;;;;;8.07;4.22;;;;;;;;;;10456841;28;20029;-63
2023/08/21 23:25:59;;;;;;;8.10;4.32;;;;;;;;;;10456380;28;20032;-63
2023/08/21 23:31:00;;;;;;;11.48;4.72;;;;;;;;;;10456629;28;20032;-63
2023/08/21 23:36:00;;;;;;;8.20;4.18;;;;;;;;;;10455764;28;20032;-63
2023/08/21 23:41:00;;;;;;;5.70;3.83;;;;;;;;;;10455173;28;20033;-63
2023/08/21 23:46:01;;;;;;;10.67;4.33;;;;;;;;;;10455188;28;20457;-63
2023/08/21 23:51:01;;;;;;;7.80;4.73;;;;;;;;;;10455154;28;20518;-63
2023/08/21 23:56:04;;;;;;;9.13;4.10;;;;;;;;;;10454915;28;20116;-63
